KAY350 KLAX-KJFK
Flight info
| Callsign | KAY350 |
|---|---|
| Flight time | 4h 10m |
| Altitude | 41000 |
| Route | OSHNN1 BEALE J146 DVC KD51W OATHE KD54A MCI RBS BVT JOEBU DORET Q29 JHW Q476 WLKES PUCKY1 |
| Aircraft | A359/H-SDE2E3GHIJ3J4J5LM1ORWXY/LB1D1 |
Departure
| Time | 2026-05-06 07:28 |
|---|---|
| Airport | Los Angeles International Airport (KLAX) |
Arrival
| Time | 2026-05-06 11:38 |
|---|---|
| Airport | John F. Kennedy International Airport (KJFK) |
| Time | Latitude | Longitude | Altitude | Speed | Heading |
|---|---|---|---|---|---|
| 2026-05-06 07:18 | 33.93339 | -118.39737 | 100 ft | 0 kts | 104° |
| 2026-05-06 07:22 | 33.93343 | -118.39754 | 102 ft | 4 kts | 99° |
| 2026-05-06 07:22 | 33.93345 | -118.39786 | 99 ft | 4 kts | 83° |
| 2026-05-06 07:22 | 33.93338 | -118.39817 | 98 ft | 4 kts | 61° |
| 2026-05-06 07:23 | 33.93322 | -118.39842 | 97 ft | 4 kts | 33° |
| 2026-05-06 07:23 | 33.93317 | -118.39846 | 99 ft | 0 kts | 26° |
| 2026-05-06 07:25 | 33.93376 | -118.39819 | 101 ft | 25 kts | 11° |
| 2026-05-06 07:25 | 33.93459 | -118.39778 | 102 ft | 8 kts | 76° |
| 2026-05-06 07:25 | 33.93477 | -118.39577 | 103 ft | 42 kts | 84° |
| 2026-05-06 07:26 | 33.93524 | -118.39131 | 102 ft | 56 kts | 82° |
| 2026-05-06 07:26 | 33.93573 | -118.38667 | 101 ft | 55 kts | 83° |
| 2026-05-06 07:26 | 33.93609 | -118.38331 | 103 ft | 22 kts | 72° |
| 2026-05-06 07:26 | 33.93638 | -118.38288 | 105 ft | 4 kts | 31° |
| 2026-05-06 07:27 | 33.93695 | -118.38286 | 104 ft | 16 kts | 346° |
| 2026-05-06 07:27 | 33.93728 | -118.38357 | 106 ft | 13 kts | 264° |
| 2026-05-06 07:27 | 33.93675 | -118.38871 | 103 ft | 115 kts | 263° |
| 2026-05-06 07:27 | 33.93541 | -118.40188 | 369 ft | 185 kts | 262° |
| 2026-05-06 07:28 | 33.93378 | -118.41804 | 1435 ft | 205 kts | 262° |
| 2026-05-06 07:28 | 33.93190 | -118.43621 | 2616 ft | 231 kts | 263° |
| 2026-05-06 07:28 | 33.91934 | -118.47482 | 5119 ft | 272 kts | 234° |
| 2026-05-06 07:29 | 33.90743 | -118.49343 | 6411 ft | 288 kts | 232° |
| 2026-05-06 07:29 | 33.89467 | -118.51261 | 7640 ft | 299 kts | 231° |
| 2026-05-06 07:29 | 33.88120 | -118.53216 | 8916 ft | 307 kts | 230° |
| 2026-05-06 07:29 | 33.86556 | -118.54975 | 10212 ft | 309 kts | 211° |
| 2026-05-06 07:30 | 33.84558 | -118.55831 | 11427 ft | 306 kts | 183° |
| 2026-05-06 07:30 | 33.82426 | -118.55647 | 12402 ft | 314 kts | 166° |
| 2026-05-06 07:30 | 33.80243 | -118.55050 | 13168 ft | 329 kts | 163° |
| 2026-05-06 07:30 | 33.78000 | -118.54392 | 13937 ft | 343 kts | 164° |
| 2026-05-06 07:31 | 33.75627 | -118.53716 | 14644 ft | 357 kts | 165° |
| 2026-05-06 07:31 | 33.73177 | -118.52956 | 15367 ft | 369 kts | 159° |
| 2026-05-06 07:31 | 33.70872 | -118.51543 | 16115 ft | 376 kts | 140° |
| 2026-05-06 07:31 | 33.69084 | -118.49260 | 16872 ft | 379 kts | 119° |
| 2026-05-06 07:32 | 33.67955 | -118.46387 | 17659 ft | 384 kts | 106° |
| 2026-05-06 07:32 | 33.67056 | -118.43327 | 18440 ft | 393 kts | 105° |
| 2026-05-06 07:32 | 33.66157 | -118.40185 | 19148 ft | 402 kts | 105° |
| 2026-05-06 07:32 | 33.65234 | -118.36987 | 19868 ft | 409 kts | 104° |
| 2026-05-06 07:33 | 33.64559 | -118.33668 | 20614 ft | 410 kts | 93° |
| 2026-05-06 07:33 | 33.64416 | -118.30252 | 21371 ft | 412 kts | 86° |
| 2026-05-06 07:33 | 33.64423 | -118.26793 | 22146 ft | 416 kts | 86° |
| 2026-05-06 07:33 | 33.64482 | -118.23312 | 22935 ft | 418 kts | 82° |
| 2026-05-06 07:34 | 33.65039 | -118.19913 | 23737 ft | 415 kts | 68° |
| 2026-05-06 07:34 | 33.66374 | -118.16875 | 24409 ft | 413 kts | 53° |
| 2026-05-06 07:34 | 33.68379 | -118.14425 | 25131 ft | 413 kts | 40° |
| 2026-05-06 07:34 | 33.70672 | -118.12324 | 25881 ft | 414 kts | 38° |
| 2026-05-06 07:35 | 33.72991 | -118.10278 | 26622 ft | 413 kts | 38° |
| 2026-05-06 07:35 | 33.75303 | -118.08231 | 27358 ft | 412 kts | 38° |
| 2026-05-06 07:35 | 33.77602 | -118.06185 | 28169 ft | 411 kts | 39° |
| 2026-05-06 07:35 | 33.79892 | -118.04138 | 28980 ft | 409 kts | 39° |
| 2026-05-06 07:36 | 33.82167 | -118.02099 | 29698 ft | 409 kts | 39° |
| 2026-05-06 07:36 | 33.84431 | -118.00064 | 30143 ft | 414 kts | 39° |
| 2026-05-06 07:36 | 33.86758 | -117.97971 | 30482 ft | 420 kts | 39° |
| 2026-05-06 07:36 | 33.89109 | -117.95855 | 30802 ft | 424 kts | 38° |
| 2026-05-06 07:37 | 33.91487 | -117.93715 | 31142 ft | 429 kts | 38° |
| 2026-05-06 07:37 | 33.93878 | -117.91543 | 31487 ft | 433 kts | 39° |
| 2026-05-06 07:37 | 33.96283 | -117.89342 | 31838 ft | 436 kts | 38° |
| 2026-05-06 07:37 | 33.98706 | -117.87125 | 32177 ft | 439 kts | 38° |
| 2026-05-06 07:38 | 34.01146 | -117.84887 | 32536 ft | 442 kts | 38° |
| 2026-05-06 07:38 | 34.03604 | -117.82632 | 32897 ft | 444 kts | 38° |
| 2026-05-06 07:38 | 34.06072 | -117.80368 | 33267 ft | 446 kts | 38° |
| 2026-05-06 07:38 | 34.08473 | -117.77989 | 33642 ft | 448 kts | 43° |
| 2026-05-06 07:39 | 34.10615 | -117.75261 | 34030 ft | 449 kts | 49° |
| 2026-05-06 07:39 | 34.12610 | -117.72352 | 34391 ft | 450 kts | 50° |
| 2026-05-06 07:39 | 34.14587 | -117.69413 | 34718 ft | 451 kts | 50° |
| 2026-05-06 07:39 | 34.16565 | -117.66469 | 35044 ft | 452 kts | 50° |
| 2026-05-06 07:40 | 34.18551 | -117.63513 | 35362 ft | 453 kts | 50° |
| 2026-05-06 07:40 | 34.20536 | -117.60560 | 35695 ft | 453 kts | 50° |
| 2026-05-06 07:40 | 34.22521 | -117.57606 | 36028 ft | 453 kts | 50° |
| 2026-05-06 07:40 | 34.24505 | -117.54649 | 36374 ft | 453 kts | 49° |
| 2026-05-06 07:41 | 34.26487 | -117.51694 | 36719 ft | 453 kts | 49° |
| 2026-05-06 07:41 | 34.28473 | -117.48734 | 37069 ft | 453 kts | 49° |
| 2026-05-06 07:41 | 34.30453 | -117.45781 | 37435 ft | 452 kts | 49° |
| 2026-05-06 07:41 | 34.32437 | -117.42821 | 37816 ft | 452 kts | 49° |
| 2026-05-06 07:42 | 34.34410 | -117.39870 | 38193 ft | 451 kts | 49° |
| 2026-05-06 07:42 | 34.36377 | -117.36924 | 38575 ft | 449 kts | 49° |
| 2026-05-06 07:42 | 34.38338 | -117.33987 | 38917 ft | 448 kts | 49° |
| 2026-05-06 07:42 | 34.40294 | -117.31055 | 39218 ft | 446 kts | 49° |
| 2026-05-06 07:43 | 34.42234 | -117.28143 | 39534 ft | 443 kts | 49° |
| 2026-05-06 07:43 | 34.44169 | -117.25238 | 39761 ft | 444 kts | 49° |
| 2026-05-06 07:43 | 34.46112 | -117.22321 | 39943 ft | 446 kts | 49° |
| 2026-05-06 07:43 | 34.48061 | -117.19390 | 40077 ft | 448 kts | 49° |
| 2026-05-06 07:44 | 34.51322 | -117.14483 | 40273 ft | 451 kts | 49° |
| 2026-05-06 07:44 | 34.53295 | -117.11511 | 40413 ft | 453 kts | 49° |
| 2026-05-06 07:44 | 34.55281 | -117.08530 | 40538 ft | 455 kts | 49° |
| 2026-05-06 07:45 | 34.57306 | -117.05579 | 40678 ft | 456 kts | 48° |
| 2026-05-06 07:45 | 34.59350 | -117.02623 | 40819 ft | 458 kts | 48° |
| 2026-05-06 07:45 | 34.61395 | -116.99656 | 40967 ft | 459 kts | 48° |
| 2026-05-06 07:45 | 34.64117 | -116.95697 | 41032 ft | 464 kts | 48° |
| 2026-05-06 07:46 | 34.67605 | -116.90610 | 41041 ft | 472 kts | 49° |
| 2026-05-06 07:46 | 34.71844 | -116.84413 | 41047 ft | 481 kts | 49° |
| 2026-05-06 07:47 | 34.76158 | -116.78095 | 41052 ft | 490 kts | 49° |
| 2026-05-06 07:47 | 34.80509 | -116.71706 | 41053 ft | 497 kts | 48° |
| 2026-05-06 07:48 | 34.84938 | -116.65193 | 41049 ft | 501 kts | 49° |
| 2026-05-06 07:48 | 34.89555 | -116.58830 | 41035 ft | 502 kts | 45° |
| 2026-05-06 07:49 | 34.94290 | -116.52590 | 41022 ft | 500 kts | 45° |
| 2026-05-06 07:49 | 34.98985 | -116.46337 | 41000 ft | 500 kts | 45° |
| 2026-05-06 07:50 | 35.03667 | -116.40067 | 40984 ft | 500 kts | 46° |
| 2026-05-06 07:50 | 35.08342 | -116.33788 | 40985 ft | 500 kts | 46° |
| 2026-05-06 07:51 | 35.13010 | -116.27504 | 40980 ft | 499 kts | 46° |
| 2026-05-06 07:51 | 35.17676 | -116.21211 | 40984 ft | 500 kts | 46° |
| 2026-05-06 07:52 | 35.22350 | -116.14897 | 40982 ft | 501 kts | 46° |
| 2026-05-06 07:52 | 35.27016 | -116.08579 | 40989 ft | 499 kts | 46° |
| 2026-05-06 07:53 | 35.31667 | -116.02271 | 40987 ft | 499 kts | 46° |
| 2026-05-06 07:53 | 35.36312 | -115.95959 | 40993 ft | 499 kts | 46° |
| 2026-05-06 07:54 | 35.40928 | -115.89677 | 40994 ft | 500 kts | 46° |
| 2026-05-06 07:54 | 35.45585 | -115.83325 | 41006 ft | 501 kts | 46° |
| 2026-05-06 07:55 | 35.50240 | -115.76965 | 40995 ft | 501 kts | 46° |
| 2026-05-06 07:55 | 35.54895 | -115.70592 | 41004 ft | 501 kts | 46° |
| 2026-05-06 07:56 | 35.59546 | -115.64213 | 41003 ft | 501 kts | 46° |
| 2026-05-06 07:56 | 35.64208 | -115.57808 | 40994 ft | 504 kts | 46° |
| 2026-05-06 07:57 | 35.68876 | -115.51382 | 40998 ft | 504 kts | 47° |
| 2026-05-06 07:57 | 35.73555 | -115.44933 | 40996 ft | 505 kts | 47° |
| 2026-05-06 07:58 | 35.78225 | -115.38472 | 40995 ft | 505 kts | 47° |
| 2026-05-06 07:58 | 35.82887 | -115.32013 | 41003 ft | 505 kts | 47° |
| 2026-05-06 07:59 | 35.87557 | -115.25532 | 41000 ft | 506 kts | 47° |
| 2026-05-06 07:59 | 35.92210 | -115.19062 | 40994 ft | 503 kts | 46° |
| 2026-05-06 08:00 | 35.96843 | -115.12606 | 40992 ft | 501 kts | 46° |
| 2026-05-06 08:00 | 36.01464 | -115.06158 | 41000 ft | 501 kts | 46° |
| 2026-05-06 08:01 | 36.06049 | -114.99747 | 40960 ft | 501 kts | 46° |
| 2026-05-06 08:01 | 36.10671 | -114.93272 | 40896 ft | 503 kts | 46° |
| 2026-05-06 08:02 | 36.15294 | -114.86777 | 40894 ft | 503 kts | 47° |
| 2026-05-06 08:02 | 36.19138 | -114.79537 | 40884 ft | 508 kts | 64° |
| 2026-05-06 08:03 | 36.21798 | -114.71419 | 40864 ft | 509 kts | 67° |
| 2026-05-06 08:03 | 36.24261 | -114.63190 | 40849 ft | 510 kts | 68° |
| 2026-05-06 08:04 | 36.26720 | -114.54953 | 40840 ft | 510 kts | 68° |
| 2026-05-06 08:04 | 36.29199 | -114.46735 | 40840 ft | 509 kts | 67° |
| 2026-05-06 08:05 | 36.31685 | -114.38525 | 40855 ft | 508 kts | 67° |
| 2026-05-06 08:05 | 36.34170 | -114.30304 | 40845 ft | 510 kts | 67° |
| 2026-05-06 08:06 | 36.36653 | -114.22060 | 40850 ft | 510 kts | 67° |
| 2026-05-06 08:06 | 36.39116 | -114.13856 | 40851 ft | 511 kts | 67° |
| 2026-05-06 08:07 | 36.41590 | -114.05591 | 40865 ft | 511 kts | 68° |
| 2026-05-06 08:07 | 36.44060 | -113.97311 | 40869 ft | 512 kts | 68° |
| 2026-05-06 08:08 | 36.46531 | -113.89009 | 40873 ft | 512 kts | 68° |
| 2026-05-06 08:08 | 36.48995 | -113.80704 | 40880 ft | 512 kts | 68° |
| 2026-05-06 08:09 | 36.51453 | -113.72391 | 40894 ft | 513 kts | 68° |
| 2026-05-06 08:09 | 36.53912 | -113.64053 | 40888 ft | 513 kts | 68° |
| 2026-05-06 08:10 | 36.56360 | -113.55726 | 40892 ft | 512 kts | 68° |
| 2026-05-06 08:10 | 36.58800 | -113.47403 | 40903 ft | 512 kts | 68° |
| 2026-05-06 08:11 | 36.61238 | -113.39065 | 40905 ft | 513 kts | 69° |
| 2026-05-06 08:11 | 36.63677 | -113.30700 | 40908 ft | 515 kts | 69° |
| 2026-05-06 08:12 | 36.66113 | -113.22302 | 40918 ft | 515 kts | 69° |
| 2026-05-06 08:12 | 36.68539 | -113.13901 | 40950 ft | 515 kts | 69° |
| 2026-05-06 08:13 | 36.70963 | -113.05490 | 40972 ft | 517 kts | 69° |
| 2026-05-06 08:13 | 36.73396 | -112.97025 | 40982 ft | 519 kts | 69° |
| 2026-05-06 08:14 | 36.75827 | -112.88542 | 40979 ft | 519 kts | 69° |
| 2026-05-06 08:14 | 36.78251 | -112.80054 | 40965 ft | 519 kts | 69° |
| 2026-05-06 08:15 | 36.80669 | -112.71561 | 40944 ft | 520 kts | 69° |
| 2026-05-06 08:15 | 36.83087 | -112.63042 | 40916 ft | 521 kts | 69° |
| 2026-05-06 08:16 | 36.85497 | -112.54525 | 40898 ft | 521 kts | 69° |
| 2026-05-06 08:16 | 36.87904 | -112.45991 | 40897 ft | 520 kts | 69° |
| 2026-05-06 08:17 | 36.90312 | -112.37423 | 40893 ft | 526 kts | 70° |
| 2026-05-06 08:17 | 36.92731 | -112.28771 | 40884 ft | 529 kts | 70° |
| 2026-05-06 08:18 | 36.95157 | -112.20094 | 40884 ft | 529 kts | 70° |
| 2026-05-06 08:18 | 36.97563 | -112.11461 | 40874 ft | 529 kts | 70° |
| 2026-05-06 08:19 | 36.99981 | -112.02763 | 40850 ft | 530 kts | 70° |
| 2026-05-06 08:19 | 37.02395 | -111.94053 | 40847 ft | 530 kts | 70° |
| 2026-05-06 08:20 | 37.04802 | -111.85335 | 40830 ft | 530 kts | 70° |
| 2026-05-06 08:20 | 37.07193 | -111.76625 | 40803 ft | 527 kts | 70° |
| 2026-05-06 08:21 | 37.09569 | -111.67966 | 40803 ft | 525 kts | 70° |
| 2026-05-06 08:21 | 37.11935 | -111.59319 | 40804 ft | 524 kts | 70° |
| 2026-05-06 08:22 | 37.14291 | -111.50674 | 40875 ft | 524 kts | 70° |
| 2026-05-06 08:22 | 37.16640 | -111.42025 | 40865 ft | 524 kts | 70° |
| 2026-05-06 08:23 | 37.18985 | -111.33361 | 40838 ft | 524 kts | 70° |
| 2026-05-06 08:23 | 37.21306 | -111.24759 | 40813 ft | 524 kts | 70° |
| 2026-05-06 08:24 | 37.23654 | -111.16035 | 40790 ft | 524 kts | 70° |
| 2026-05-06 08:24 | 37.25965 | -111.07404 | 40782 ft | 526 kts | 70° |
| 2026-05-06 08:25 | 37.28288 | -110.98687 | 40788 ft | 527 kts | 70° |
| 2026-05-06 08:25 | 37.30609 | -110.89953 | 40783 ft | 527 kts | 70° |
| 2026-05-06 08:26 | 37.32926 | -110.81212 | 40780 ft | 527 kts | 71° |
| 2026-05-06 08:26 | 37.35238 | -110.72460 | 40766 ft | 529 kts | 71° |
| 2026-05-06 08:27 | 37.37551 | -110.63675 | 40762 ft | 529 kts | 71° |
| 2026-05-06 08:27 | 37.39858 | -110.54880 | 40767 ft | 530 kts | 71° |
| 2026-05-06 08:28 | 37.42157 | -110.46085 | 40778 ft | 530 kts | 71° |
| 2026-05-06 08:28 | 37.44456 | -110.37260 | 40770 ft | 532 kts | 71° |
| 2026-05-06 08:29 | 37.46755 | -110.28405 | 40780 ft | 532 kts | 71° |
| 2026-05-06 08:29 | 37.49047 | -110.19544 | 40797 ft | 532 kts | 71° |
| 2026-05-06 08:30 | 37.51334 | -110.10674 | 40800 ft | 533 kts | 71° |
| 2026-05-06 08:30 | 37.53621 | -110.01772 | 40801 ft | 535 kts | 71° |
| 2026-05-06 08:31 | 37.55906 | -109.92848 | 40807 ft | 535 kts | 71° |
| 2026-05-06 08:31 | 37.57801 | -109.85418 | 40808 ft | 535 kts | 71° |
| 2026-05-06 08:32 | 37.60074 | -109.76485 | 40811 ft | 536 kts | 71° |
| 2026-05-06 08:32 | 37.62352 | -109.67498 | 40937 ft | 538 kts | 71° |
| 2026-05-06 08:33 | 37.64625 | -109.58492 | 40971 ft | 539 kts | 72° |
| 2026-05-06 08:33 | 37.66894 | -109.49474 | 40981 ft | 539 kts | 72° |
| 2026-05-06 08:34 | 37.70290 | -109.35914 | 40944 ft | 541 kts | 72° |
| 2026-05-06 08:35 | 37.72551 | -109.26843 | 40905 ft | 542 kts | 72° |
| 2026-05-06 08:35 | 37.74808 | -109.17759 | 40868 ft | 542 kts | 72° |
| 2026-05-06 08:36 | 37.77042 | -109.08730 | 40846 ft | 543 kts | 72° |
| 2026-05-06 08:36 | 37.79293 | -108.99599 | 40843 ft | 543 kts | 72° |
| 2026-05-06 08:37 | 37.81288 | -108.90400 | 40848 ft | 543 kts | 77° |
| 2026-05-06 08:37 | 37.82863 | -108.81062 | 40849 ft | 542 kts | 78° |
| 2026-05-06 08:38 | 37.84363 | -108.71695 | 40852 ft | 544 kts | 79° |
| 2026-05-06 08:38 | 37.85844 | -108.62360 | 40858 ft | 545 kts | 79° |
| 2026-05-06 08:39 | 37.87338 | -108.52947 | 40862 ft | 546 kts | 79° |
| 2026-05-06 08:39 | 37.88831 | -108.43526 | 40864 ft | 546 kts | 79° |
| 2026-05-06 08:40 | 37.90323 | -108.34062 | 40881 ft | 549 kts | 79° |
| 2026-05-06 08:40 | 37.91809 | -108.24582 | 40925 ft | 550 kts | 79° |
| 2026-05-06 08:41 | 37.93290 | -108.15078 | 40979 ft | 550 kts | 79° |
| 2026-05-06 08:41 | 37.94762 | -108.05575 | 41023 ft | 550 kts | 79° |
| 2026-05-06 08:42 | 37.96227 | -107.96066 | 41042 ft | 549 kts | 79° |
| 2026-05-06 08:42 | 37.96957 | -107.91317 | 40857 ft | 549 kts | 79° |
| 2026-05-06 08:42 | 37.97685 | -107.86562 | 40856 ft | 550 kts | 79° |
| 2026-05-06 08:43 | 37.99133 | -107.77047 | 40850 ft | 549 kts | 79° |
| 2026-05-06 08:43 | 38.00569 | -107.67520 | 40848 ft | 551 kts | 79° |
| 2026-05-06 08:44 | 38.02014 | -107.57963 | 40847 ft | 553 kts | 79° |
| 2026-05-06 08:44 | 38.03444 | -107.48454 | 40840 ft | 552 kts | 79° |
| 2026-05-06 08:45 | 38.04882 | -107.38812 | 40843 ft | 553 kts | 80° |
| 2026-05-06 08:45 | 38.06289 | -107.29279 | 40838 ft | 554 kts | 80° |
| 2026-05-06 08:46 | 38.07706 | -107.19647 | 40833 ft | 555 kts | 80° |
| 2026-05-06 08:46 | 38.09115 | -107.10009 | 40830 ft | 556 kts | 80° |
| 2026-05-06 08:47 | 38.10521 | -107.00348 | 40826 ft | 557 kts | 81° |
| 2026-05-06 08:47 | 38.11922 | -106.90655 | 40818 ft | 558 kts | 81° |
| 2026-05-06 08:48 | 38.13315 | -106.80953 | 40818 ft | 559 kts | 81° |
| 2026-05-06 08:48 | 38.14702 | -106.71244 | 40816 ft | 559 kts | 81° |
| 2026-05-06 08:49 | 38.16084 | -106.61509 | 40809 ft | 561 kts | 81° |
| 2026-05-06 08:49 | 38.17461 | -106.51739 | 40805 ft | 562 kts | 81° |
| 2026-05-06 08:50 | 38.18831 | -106.41967 | 40794 ft | 562 kts | 81° |
| 2026-05-06 08:50 | 38.20194 | -106.32182 | 40785 ft | 562 kts | 81° |
| 2026-05-06 08:51 | 38.21550 | -106.22381 | 40793 ft | 564 kts | 81° |
| 2026-05-06 08:51 | 38.22901 | -106.12557 | 40813 ft | 564 kts | 81° |
| 2026-05-06 08:52 | 38.24238 | -106.02715 | 40826 ft | 565 kts | 82° |
| 2026-05-06 08:52 | 38.25572 | -105.92841 | 40788 ft | 567 kts | 82° |
| 2026-05-06 08:53 | 38.26916 | -105.82931 | 40796 ft | 569 kts | 82° |
| 2026-05-06 08:53 | 38.28250 | -105.73018 | 40808 ft | 569 kts | 82° |
| 2026-05-06 08:54 | 38.29565 | -105.63148 | 40817 ft | 569 kts | 82° |
| 2026-05-06 08:54 | 38.30880 | -105.53191 | 40819 ft | 571 kts | 82° |
| 2026-05-06 08:55 | 38.32189 | -105.43214 | 40823 ft | 571 kts | 82° |
| 2026-05-06 08:55 | 38.33490 | -105.33231 | 40845 ft | 571 kts | 83° |
| 2026-05-06 08:56 | 38.34785 | -105.23237 | 40845 ft | 572 kts | 83° |
| 2026-05-06 08:56 | 38.35430 | -105.18232 | 40955 ft | 573 kts | 83° |
| 2026-05-06 08:56 | 38.36074 | -105.13212 | 40951 ft | 574 kts | 83° |
| 2026-05-06 08:57 | 38.37356 | -105.03170 | 41074 ft | 574 kts | 83° |
| 2026-05-06 08:57 | 38.38630 | -104.93124 | 41080 ft | 574 kts | 83° |
| 2026-05-06 08:58 | 38.39897 | -104.83061 | 41082 ft | 576 kts | 83° |
| 2026-05-06 08:58 | 38.41158 | -104.72969 | 41074 ft | 577 kts | 83° |
| 2026-05-06 08:59 | 38.42411 | -104.62874 | 41073 ft | 577 kts | 83° |
| 2026-05-06 08:59 | 38.43657 | -104.52764 | 41071 ft | 577 kts | 83° |
| 2026-05-06 09:00 | 38.44893 | -104.42661 | 41074 ft | 577 kts | 83° |
| 2026-05-06 09:00 | 38.46112 | -104.32616 | 41080 ft | 577 kts | 83° |
| 2026-05-06 09:01 | 38.47331 | -104.22500 | 41088 ft | 577 kts | 83° |
| 2026-05-06 09:01 | 38.48550 | -104.12307 | 41094 ft | 578 kts | 83° |
| 2026-05-06 09:02 | 38.49749 | -104.02204 | 41095 ft | 579 kts | 83° |
| 2026-05-06 09:02 | 38.51124 | -103.92066 | 41086 ft | 580 kts | 79° |
| 2026-05-06 09:03 | 38.52896 | -103.82003 | 41110 ft | 582 kts | 78° |
| 2026-05-06 09:03 | 38.54684 | -103.71924 | 41072 ft | 582 kts | 79° |
| 2026-05-06 09:04 | 38.56396 | -103.61820 | 41064 ft | 581 kts | 79° |
| 2026-05-06 09:04 | 38.58061 | -103.51711 | 41061 ft | 581 kts | 79° |
| 2026-05-06 09:05 | 38.59712 | -103.41584 | 41059 ft | 583 kts | 79° |
| 2026-05-06 09:05 | 38.61365 | -103.31416 | 41051 ft | 585 kts | 80° |
| 2026-05-06 09:06 | 38.63014 | -103.21233 | 41051 ft | 585 kts | 80° |
| 2026-05-06 09:06 | 38.64654 | -103.11046 | 41047 ft | 585 kts | 80° |
| 2026-05-06 09:07 | 38.66289 | -103.00831 | 41045 ft | 587 kts | 80° |
| 2026-05-06 09:07 | 38.67918 | -102.90591 | 41054 ft | 587 kts | 80° |
| 2026-05-06 09:08 | 38.69530 | -102.80402 | 41055 ft | 587 kts | 80° |
| 2026-05-06 09:08 | 38.71142 | -102.70144 | 41059 ft | 589 kts | 80° |
| 2026-05-06 09:09 | 38.72753 | -102.59838 | 41063 ft | 591 kts | 80° |
| 2026-05-06 09:09 | 38.74355 | -102.49524 | 41065 ft | 591 kts | 80° |
| 2026-05-06 09:10 | 38.75950 | -102.39192 | 41070 ft | 591 kts | 80° |
| 2026-05-06 09:10 | 38.77537 | -102.28849 | 41067 ft | 592 kts | 80° |
| 2026-05-06 09:11 | 38.79118 | -102.18477 | 41065 ft | 593 kts | 81° |
| 2026-05-06 09:11 | 38.80689 | -102.08108 | 41071 ft | 593 kts | 81° |
| 2026-05-06 09:12 | 38.82253 | -101.97719 | 41077 ft | 594 kts | 81° |
| 2026-05-06 09:12 | 38.83812 | -101.87299 | 41079 ft | 596 kts | 81° |
| 2026-05-06 09:13 | 38.85356 | -101.76850 | 41079 ft | 596 kts | 82° |
| 2026-05-06 09:13 | 38.86419 | -101.66326 | 41085 ft | 594 kts | 87° |
| 2026-05-06 09:14 | 38.87212 | -101.55813 | 41100 ft | 597 kts | 87° |
| 2026-05-06 09:14 | 38.88063 | -101.45199 | 41102 ft | 598 kts | 86° |
| 2026-05-06 09:15 | 38.88983 | -101.34583 | 41102 ft | 598 kts | 86° |
| 2026-05-06 09:15 | 38.89920 | -101.23961 | 41091 ft | 600 kts | 86° |
| 2026-05-06 09:16 | 38.90847 | -101.13304 | 41094 ft | 601 kts | 86° |
| 2026-05-06 09:16 | 38.91760 | -101.02626 | 41092 ft | 601 kts | 86° |
| 2026-05-06 09:17 | 38.92662 | -100.91934 | 41099 ft | 601 kts | 86° |
| 2026-05-06 09:17 | 38.93548 | -100.81316 | 41097 ft | 601 kts | 86° |
| 2026-05-06 09:18 | 38.94430 | -100.70637 | 41106 ft | 601 kts | 86° |
| 2026-05-06 09:18 | 38.95302 | -100.59951 | 41108 ft | 601 kts | 86° |
| 2026-05-06 09:19 | 38.96164 | -100.49252 | 41109 ft | 603 kts | 86° |
| 2026-05-06 09:19 | 38.97021 | -100.38511 | 41113 ft | 604 kts | 86° |
| 2026-05-06 09:20 | 38.97868 | -100.27767 | 41107 ft | 604 kts | 86° |
| 2026-05-06 09:20 | 38.98705 | -100.17016 | 41113 ft | 605 kts | 86° |
| 2026-05-06 09:21 | 38.99395 | -100.08063 | 41111 ft | 605 kts | 86° |
| 2026-05-06 09:21 | 39.00215 | -99.97295 | 41116 ft | 606 kts | 86° |
| 2026-05-06 09:22 | 39.01037 | -99.86511 | 41116 ft | 606 kts | 86° |
| 2026-05-06 09:22 | 39.01983 | -99.73972 | 41113 ft | 607 kts | 87° |
| 2026-05-06 09:23 | 39.02658 | -99.64899 | 41120 ft | 608 kts | 87° |
| 2026-05-06 09:23 | 39.03454 | -99.54067 | 41128 ft | 608 kts | 87° |
| 2026-05-06 09:24 | 39.04240 | -99.43230 | 41134 ft | 609 kts | 87° |
| 2026-05-06 09:24 | 39.05016 | -99.32384 | 41123 ft | 609 kts | 87° |
| 2026-05-06 09:25 | 39.05783 | -99.21521 | 41120 ft | 609 kts | 87° |
| 2026-05-06 09:25 | 39.06535 | -99.10737 | 41118 ft | 609 kts | 87° |
| 2026-05-06 09:26 | 39.07283 | -98.99859 | 41111 ft | 611 kts | 87° |
| 2026-05-06 09:26 | 39.08021 | -98.88975 | 41108 ft | 611 kts | 87° |
| 2026-05-06 09:27 | 39.08750 | -98.78066 | 41105 ft | 611 kts | 87° |
| 2026-05-06 09:27 | 39.09469 | -98.67165 | 41113 ft | 612 kts | 87° |
| 2026-05-06 09:28 | 39.10178 | -98.56235 | 41112 ft | 613 kts | 87° |
| 2026-05-06 09:28 | 39.10880 | -98.45286 | 41117 ft | 613 kts | 88° |
| 2026-05-06 09:29 | 39.11570 | -98.34339 | 41122 ft | 613 kts | 88° |
| 2026-05-06 09:29 | 39.12246 | -98.23467 | 41116 ft | 613 kts | 87° |
| 2026-05-06 09:30 | 39.12916 | -98.12517 | 41111 ft | 613 kts | 88° |
| 2026-05-06 09:30 | 39.13576 | -98.01566 | 41112 ft | 613 kts | 88° |
| 2026-05-06 09:31 | 39.14225 | -97.90612 | 41110 ft | 614 kts | 88° |
| 2026-05-06 09:31 | 39.14865 | -97.79634 | 41106 ft | 615 kts | 88° |
| 2026-05-06 09:32 | 39.15496 | -97.68645 | 41102 ft | 615 kts | 88° |
| 2026-05-06 09:32 | 39.16118 | -97.57642 | 41086 ft | 615 kts | 88° |
| 2026-05-06 09:33 | 39.16728 | -97.46643 | 41101 ft | 616 kts | 88° |
| 2026-05-06 09:33 | 39.17329 | -97.35631 | 41099 ft | 616 kts | 88° |
| 2026-05-06 09:34 | 39.17920 | -97.24607 | 41095 ft | 616 kts | 88° |
| 2026-05-06 09:34 | 39.18500 | -97.13590 | 41100 ft | 616 kts | 88° |
| 2026-05-06 09:35 | 39.19070 | -97.02566 | 41101 ft | 616 kts | 88° |
| 2026-05-06 09:35 | 39.19628 | -96.91552 | 41110 ft | 616 kts | 88° |
| 2026-05-06 09:36 | 39.20177 | -96.80530 | 41116 ft | 616 kts | 88° |
| 2026-05-06 09:36 | 39.20715 | -96.69511 | 41108 ft | 616 kts | 88° |
| 2026-05-06 09:37 | 39.21240 | -96.58556 | 41111 ft | 616 kts | 88° |
| 2026-05-06 09:37 | 39.21757 | -96.47536 | 41106 ft | 616 kts | 88° |
| 2026-05-06 09:38 | 39.22265 | -96.36504 | 41103 ft | 617 kts | 88° |
| 2026-05-06 09:38 | 39.22763 | -96.25458 | 41102 ft | 617 kts | 89° |
| 2026-05-06 09:39 | 39.23250 | -96.14402 | 41099 ft | 617 kts | 89° |
| 2026-05-06 09:39 | 39.23727 | -96.03348 | 41099 ft | 617 kts | 88° |
| 2026-05-06 09:40 | 39.24193 | -95.92299 | 41098 ft | 617 kts | 89° |
| 2026-05-06 09:40 | 39.24873 | -95.75738 | 41094 ft | 616 kts | 89° |
| 2026-05-06 09:41 | 39.25313 | -95.64683 | 41093 ft | 616 kts | 89° |
| 2026-05-06 09:41 | 39.25742 | -95.53637 | 41084 ft | 616 kts | 89° |
| 2026-05-06 09:42 | 39.26161 | -95.42599 | 41088 ft | 616 kts | 89° |
| 2026-05-06 09:42 | 39.26566 | -95.31641 | 41076 ft | 616 kts | 89° |
| 2026-05-06 09:43 | 39.26964 | -95.20605 | 41079 ft | 615 kts | 89° |
| 2026-05-06 09:43 | 39.27351 | -95.09575 | 41071 ft | 615 kts | 89° |
| 2026-05-06 09:44 | 39.27730 | -94.98470 | 41059 ft | 615 kts | 89° |
| 2026-05-06 09:44 | 39.28094 | -94.87505 | 41053 ft | 616 kts | 89° |
| 2026-05-06 09:45 | 39.28508 | -94.76456 | 41048 ft | 617 kts | 84° |
| 2026-05-06 09:45 | 39.30353 | -94.65650 | 41058 ft | 616 kts | 73° |
| 2026-05-06 09:46 | 39.32718 | -94.55008 | 41060 ft | 616 kts | 72° |
| 2026-05-06 09:46 | 39.35183 | -94.44409 | 41071 ft | 616 kts | 71° |
| 2026-05-06 09:47 | 39.37625 | -94.33790 | 41052 ft | 616 kts | 72° |
| 2026-05-06 09:47 | 39.40028 | -94.23142 | 41056 ft | 616 kts | 72° |
| 2026-05-06 09:48 | 39.42406 | -94.12505 | 41056 ft | 617 kts | 72° |
| 2026-05-06 09:48 | 39.44780 | -94.01842 | 41058 ft | 617 kts | 72° |
| 2026-05-06 09:49 | 39.47146 | -93.91171 | 41051 ft | 617 kts | 72° |
| 2026-05-06 09:49 | 39.49504 | -93.80492 | 41042 ft | 617 kts | 72° |
| 2026-05-06 09:50 | 39.51852 | -93.69805 | 41048 ft | 617 kts | 72° |
| 2026-05-06 09:50 | 39.54187 | -93.59125 | 41046 ft | 615 kts | 72° |
| 2026-05-06 09:51 | 39.56504 | -93.48474 | 41045 ft | 614 kts | 72° |
| 2026-05-06 09:51 | 39.58797 | -93.37886 | 41046 ft | 614 kts | 73° |
| 2026-05-06 09:52 | 39.61109 | -93.27158 | 41045 ft | 614 kts | 73° |
| 2026-05-06 09:52 | 39.63397 | -93.16491 | 41045 ft | 614 kts | 73° |
| 2026-05-06 09:53 | 39.65672 | -93.05826 | 41044 ft | 614 kts | 73° |
| 2026-05-06 09:53 | 39.67924 | -92.95216 | 41042 ft | 614 kts | 73° |
| 2026-05-06 09:54 | 39.70186 | -92.84511 | 41040 ft | 614 kts | 73° |
| 2026-05-06 09:54 | 39.72436 | -92.73808 | 41034 ft | 614 kts | 73° |
| 2026-05-06 09:55 | 39.74677 | -92.63091 | 41030 ft | 614 kts | 73° |
| 2026-05-06 09:55 | 39.76909 | -92.52369 | 41030 ft | 614 kts | 73° |
| 2026-05-06 09:56 | 39.79128 | -92.41647 | 41031 ft | 613 kts | 73° |
| 2026-05-06 09:56 | 39.81316 | -92.31022 | 41026 ft | 612 kts | 73° |
| 2026-05-06 09:57 | 39.83511 | -92.20313 | 41019 ft | 612 kts | 73° |
| 2026-05-06 09:57 | 39.85696 | -92.09599 | 41012 ft | 613 kts | 73° |
| 2026-05-06 09:58 | 39.87871 | -91.98880 | 41012 ft | 613 kts | 73° |
| 2026-05-06 09:58 | 39.90036 | -91.88149 | 41000 ft | 613 kts | 73° |
| 2026-05-06 09:59 | 39.92191 | -91.77414 | 40996 ft | 613 kts | 73° |
| 2026-05-06 09:59 | 39.94336 | -91.66673 | 40991 ft | 613 kts | 74° |
| 2026-05-06 10:00 | 39.96474 | -91.55908 | 40994 ft | 613 kts | 74° |
| 2026-05-06 10:00 | 39.98602 | -91.45139 | 40987 ft | 614 kts | 74° |
| 2026-05-06 10:01 | 40.00722 | -91.34356 | 40987 ft | 614 kts | 74° |
| 2026-05-06 10:01 | 40.02833 | -91.23560 | 41016 ft | 614 kts | 74° |
| 2026-05-06 10:02 | 40.04913 | -91.12861 | 40959 ft | 612 kts | 74° |
| 2026-05-06 10:02 | 40.06998 | -91.02077 | 40969 ft | 612 kts | 74° |
| 2026-05-06 10:03 | 40.09072 | -90.91300 | 40965 ft | 612 kts | 75° |
| 2026-05-06 10:03 | 40.11137 | -90.80509 | 40967 ft | 612 kts | 75° |
| 2026-05-06 10:04 | 40.13190 | -90.69715 | 40968 ft | 613 kts | 75° |
| 2026-05-06 10:04 | 40.15238 | -90.58897 | 40968 ft | 613 kts | 75° |
| 2026-05-06 10:05 | 40.17276 | -90.48066 | 40969 ft | 613 kts | 75° |
| 2026-05-06 10:05 | 40.19303 | -90.37236 | 40972 ft | 613 kts | 75° |
| 2026-05-06 10:06 | 40.21321 | -90.26393 | 40967 ft | 613 kts | 75° |
| 2026-05-06 10:06 | 40.23329 | -90.15541 | 40964 ft | 613 kts | 75° |
| 2026-05-06 10:07 | 40.25326 | -90.04688 | 40970 ft | 613 kts | 75° |
| 2026-05-06 10:07 | 40.27312 | -89.93838 | 40975 ft | 612 kts | 75° |
| 2026-05-06 10:08 | 40.29284 | -89.82998 | 40966 ft | 612 kts | 75° |
| 2026-05-06 10:08 | 40.31246 | -89.72151 | 40971 ft | 612 kts | 75° |
| 2026-05-06 10:09 | 40.32869 | -89.63135 | 40969 ft | 612 kts | 75° |
| 2026-05-06 10:09 | 40.34813 | -89.52272 | 40968 ft | 612 kts | 76° |
| 2026-05-06 10:10 | 40.36746 | -89.41410 | 40969 ft | 612 kts | 76° |
| 2026-05-06 10:10 | 40.38670 | -89.30536 | 40966 ft | 612 kts | 76° |
| 2026-05-06 10:11 | 40.40584 | -89.19654 | 40963 ft | 612 kts | 76° |
| 2026-05-06 10:11 | 40.42487 | -89.08770 | 40963 ft | 612 kts | 76° |
| 2026-05-06 10:12 | 40.44380 | -88.97880 | 40971 ft | 612 kts | 76° |
| 2026-05-06 10:12 | 40.46263 | -88.86983 | 40971 ft | 612 kts | 76° |
| 2026-05-06 10:13 | 40.48138 | -88.76069 | 40966 ft | 611 kts | 76° |
| 2026-05-06 10:13 | 40.49995 | -88.65186 | 40964 ft | 610 kts | 76° |
| 2026-05-06 10:14 | 40.51828 | -88.54380 | 40957 ft | 610 kts | 76° |
| 2026-05-06 10:14 | 40.53664 | -88.43494 | 40947 ft | 610 kts | 76° |
| 2026-05-06 10:15 | 40.55489 | -88.32605 | 40945 ft | 610 kts | 77° |
| 2026-05-06 10:15 | 40.57305 | -88.21706 | 40946 ft | 610 kts | 76° |
| 2026-05-06 10:16 | 40.57931 | -88.16196 | 40943 ft | 610 kts | 87° |
| 2026-05-06 10:16 | 40.58044 | -88.10635 | 40948 ft | 608 kts | 91° |
| 2026-05-06 10:16 | 40.57941 | -87.99508 | 40937 ft | 608 kts | 94° |
| 2026-05-06 10:17 | 40.57669 | -87.88395 | 40938 ft | 608 kts | 94° |
| 2026-05-06 10:17 | 40.57388 | -87.77278 | 40935 ft | 608 kts | 94° |
| 2026-05-06 10:18 | 40.57127 | -87.66166 | 40926 ft | 607 kts | 94° |
| 2026-05-06 10:18 | 40.56869 | -87.55059 | 40924 ft | 607 kts | 94° |
| 2026-05-06 10:19 | 40.56603 | -87.43961 | 40923 ft | 607 kts | 94° |
| 2026-05-06 10:19 | 40.56323 | -87.32871 | 40923 ft | 607 kts | 94° |
| 2026-05-06 10:20 | 40.56031 | -87.21781 | 40922 ft | 606 kts | 94° |
| 2026-05-06 10:20 | 40.55759 | -87.10795 | 40922 ft | 606 kts | 91° |
| 2026-05-06 10:21 | 40.56120 | -87.05267 | 40933 ft | 607 kts | 79° |
| 2026-05-06 10:21 | 40.56912 | -86.99820 | 40930 ft | 606 kts | 77° |
| 2026-05-06 10:21 | 40.58776 | -86.89004 | 40920 ft | 607 kts | 75° |
| 2026-05-06 10:22 | 40.60771 | -86.78220 | 40920 ft | 606 kts | 75° |
| 2026-05-06 10:22 | 40.62744 | -86.67437 | 40919 ft | 606 kts | 75° |
| 2026-05-06 10:23 | 40.64675 | -86.56634 | 40921 ft | 606 kts | 76° |
| 2026-05-06 10:23 | 40.66583 | -86.45820 | 40935 ft | 606 kts | 76° |
| 2026-05-06 10:24 | 40.68479 | -86.35008 | 40934 ft | 606 kts | 76° |
| 2026-05-06 10:24 | 40.70367 | -86.24196 | 40897 ft | 606 kts | 76° |
| 2026-05-06 10:25 | 40.72248 | -86.13367 | 40889 ft | 607 kts | 76° |
| 2026-05-06 10:25 | 40.74124 | -86.02507 | 40902 ft | 608 kts | 76° |
| 2026-05-06 10:26 | 40.75992 | -85.91623 | 40903 ft | 608 kts | 76° |
| 2026-05-06 10:26 | 40.77848 | -85.80740 | 40912 ft | 608 kts | 76° |
| 2026-05-06 10:27 | 40.79696 | -85.69837 | 40925 ft | 608 kts | 76° |
| 2026-05-06 10:27 | 40.81532 | -85.58941 | 40924 ft | 608 kts | 76° |
| 2026-05-06 10:28 | 40.83360 | -85.48030 | 40930 ft | 608 kts | 77° |
| 2026-05-06 10:28 | 40.85177 | -85.37113 | 40925 ft | 608 kts | 77° |
| 2026-05-06 10:29 | 40.86982 | -85.26201 | 40914 ft | 608 kts | 77° |
| 2026-05-06 10:29 | 40.89074 | -85.15375 | 40916 ft | 607 kts | 71° |
| 2026-05-06 10:30 | 40.91568 | -85.04711 | 40917 ft | 607 kts | 71° |
| 2026-05-06 10:30 | 40.94028 | -84.94103 | 40919 ft | 607 kts | 71° |
| 2026-05-06 10:31 | 40.96409 | -84.83377 | 40919 ft | 607 kts | 72° |
| 2026-05-06 10:31 | 40.98738 | -84.72643 | 40917 ft | 607 kts | 72° |
| 2026-05-06 10:32 | 41.01056 | -84.61892 | 40951 ft | 607 kts | 72° |
| 2026-05-06 10:32 | 41.03371 | -84.51140 | 40916 ft | 607 kts | 72° |
| 2026-05-06 10:33 | 41.05679 | -84.40383 | 40918 ft | 607 kts | 72° |
| 2026-05-06 10:33 | 41.07978 | -84.29613 | 40916 ft | 607 kts | 73° |
| 2026-05-06 10:34 | 41.10263 | -84.18853 | 40915 ft | 607 kts | 73° |
| 2026-05-06 10:34 | 41.12541 | -84.08073 | 40915 ft | 607 kts | 73° |
| 2026-05-06 10:35 | 41.14807 | -83.97290 | 40913 ft | 607 kts | 73° |
| 2026-05-06 10:35 | 41.17062 | -83.86504 | 40907 ft | 607 kts | 73° |
| 2026-05-06 10:36 | 41.19310 | -83.75702 | 40883 ft | 606 kts | 73° |
| 2026-05-06 10:36 | 41.21543 | -83.64908 | 40881 ft | 606 kts | 73° |
| 2026-05-06 10:37 | 41.23769 | -83.54100 | 40885 ft | 606 kts | 73° |
| 2026-05-06 10:37 | 41.25981 | -83.43297 | 40901 ft | 606 kts | 73° |
| 2026-05-06 10:38 | 41.28185 | -83.32477 | 40900 ft | 606 kts | 73° |
| 2026-05-06 10:38 | 41.30358 | -83.21755 | 40901 ft | 606 kts | 73° |
| 2026-05-06 10:39 | 41.32541 | -83.10926 | 40896 ft | 606 kts | 73° |
| 2026-05-06 10:39 | 41.34714 | -83.00093 | 40901 ft | 606 kts | 73° |
| 2026-05-06 10:40 | 41.36875 | -82.89261 | 40902 ft | 605 kts | 74° |
| 2026-05-06 10:40 | 41.38999 | -82.78550 | 40903 ft | 604 kts | 74° |
| 2026-05-06 10:41 | 41.41138 | -82.67712 | 40903 ft | 604 kts | 74° |
| 2026-05-06 10:41 | 41.43265 | -82.56875 | 40903 ft | 604 kts | 74° |
| 2026-05-06 10:42 | 41.45380 | -82.46039 | 40881 ft | 604 kts | 74° |
| 2026-05-06 10:42 | 41.47486 | -82.35186 | 40866 ft | 604 kts | 74° |
| 2026-05-06 10:43 | 41.49580 | -82.24342 | 40891 ft | 603 kts | 74° |
| 2026-05-06 10:44 | 41.52698 | -82.08081 | 40884 ft | 603 kts | 75° |
| 2026-05-06 10:44 | 41.54761 | -81.97246 | 40880 ft | 602 kts | 75° |
| 2026-05-06 10:45 | 41.56813 | -81.86405 | 40871 ft | 602 kts | 75° |
| 2026-05-06 10:45 | 41.58855 | -81.75561 | 40868 ft | 602 kts | 75° |
| 2026-05-06 10:46 | 41.60876 | -81.64770 | 40845 ft | 602 kts | 75° |
| 2026-05-06 10:46 | 41.62897 | -81.53911 | 40860 ft | 602 kts | 75° |
| 2026-05-06 10:47 | 41.64909 | -81.43046 | 40868 ft | 602 kts | 75° |
| 2026-05-06 10:47 | 41.66912 | -81.32166 | 40878 ft | 602 kts | 75° |
| 2026-05-06 10:48 | 41.68898 | -81.21311 | 40868 ft | 600 kts | 75° |
| 2026-05-06 10:48 | 41.70871 | -81.10464 | 40865 ft | 599 kts | 75° |
| 2026-05-06 10:49 | 41.72832 | -80.99626 | 40843 ft | 599 kts | 75° |
| 2026-05-06 10:49 | 41.74784 | -80.88776 | 40827 ft | 599 kts | 76° |
| 2026-05-06 10:50 | 41.76724 | -80.77921 | 40833 ft | 599 kts | 76° |
| 2026-05-06 10:50 | 41.78654 | -80.67064 | 40832 ft | 599 kts | 76° |
| 2026-05-06 10:51 | 41.80830 | -80.56301 | 40838 ft | 598 kts | 69° |
| 2026-05-06 10:51 | 41.83570 | -80.45800 | 40832 ft | 597 kts | 68° |
| 2026-05-06 10:52 | 41.86411 | -80.35344 | 40839 ft | 596 kts | 68° |
| 2026-05-06 10:52 | 41.89258 | -80.24870 | 40843 ft | 597 kts | 68° |
| 2026-05-06 10:53 | 41.92078 | -80.14393 | 40836 ft | 597 kts | 68° |
| 2026-05-06 10:53 | 41.94877 | -80.03914 | 40846 ft | 596 kts | 68° |
| 2026-05-06 10:54 | 41.97668 | -79.93413 | 40862 ft | 595 kts | 68° |
| 2026-05-06 10:54 | 42.00421 | -79.83008 | 40850 ft | 594 kts | 68° |
| 2026-05-06 10:55 | 42.03177 | -79.72551 | 40844 ft | 593 kts | 68° |
| 2026-05-06 10:55 | 42.05925 | -79.62083 | 40841 ft | 592 kts | 68° |
| 2026-05-06 10:56 | 42.08216 | -79.53318 | 40830 ft | 593 kts | 68° |
| 2026-05-06 10:56 | 42.10944 | -79.42844 | 40819 ft | 593 kts | 68° |
| 2026-05-06 10:57 | 42.13656 | -79.32383 | 40819 ft | 591 kts | 69° |
| 2026-05-06 10:57 | 42.16330 | -79.21992 | 40809 ft | 591 kts | 69° |
| 2026-05-06 10:57 | 42.17303 | -79.16610 | 40814 ft | 592 kts | 81° |
| 2026-05-06 10:58 | 42.17583 | -79.11090 | 40814 ft | 590 kts | 94° |
| 2026-05-06 10:58 | 42.17086 | -79.05638 | 40805 ft | 584 kts | 107° |
| 2026-05-06 10:58 | 42.16028 | -79.00370 | 40822 ft | 581 kts | 111° |
| 2026-05-06 10:59 | 42.13504 | -78.90025 | 40827 ft | 581 kts | 114° |
| 2026-05-06 10:59 | 42.10829 | -78.79768 | 40820 ft | 581 kts | 114° |
| 2026-05-06 11:00 | 42.08177 | -78.69479 | 40812 ft | 581 kts | 114° |
| 2026-05-06 11:00 | 42.05558 | -78.59186 | 40797 ft | 582 kts | 113° |
| 2026-05-06 11:01 | 42.02938 | -78.48871 | 40780 ft | 583 kts | 113° |
| 2026-05-06 11:01 | 42.00301 | -78.38533 | 40783 ft | 585 kts | 113° |
| 2026-05-06 11:02 | 41.97649 | -78.28197 | 40793 ft | 585 kts | 113° |
| 2026-05-06 11:02 | 41.94986 | -78.17870 | 40790 ft | 585 kts | 113° |
| 2026-05-06 11:03 | 41.92316 | -78.07556 | 40791 ft | 585 kts | 114° |
| 2026-05-06 11:03 | 41.89637 | -77.97255 | 40789 ft | 585 kts | 114° |
| 2026-05-06 11:04 | 41.86946 | -77.86950 | 40781 ft | 584 kts | 113° |
| 2026-05-06 11:04 | 41.84254 | -77.76667 | 40775 ft | 585 kts | 114° |
| 2026-05-06 11:05 | 41.81543 | -77.66386 | 40780 ft | 585 kts | 114° |
| 2026-05-06 11:05 | 41.78826 | -77.56123 | 40777 ft | 585 kts | 113° |
| 2026-05-06 11:06 | 41.76104 | -77.45855 | 40778 ft | 584 kts | 114° |
| 2026-05-06 11:06 | 41.73368 | -77.35623 | 40790 ft | 584 kts | 114° |
| 2026-05-06 11:07 | 41.70626 | -77.25389 | 40788 ft | 584 kts | 114° |
| 2026-05-06 11:07 | 41.67878 | -77.15165 | 40793 ft | 584 kts | 113° |
| 2026-05-06 11:08 | 41.65120 | -77.04942 | 40799 ft | 585 kts | 114° |
| 2026-05-06 11:08 | 41.62343 | -76.94716 | 40799 ft | 585 kts | 114° |
| 2026-05-06 11:09 | 41.59558 | -76.84499 | 40790 ft | 585 kts | 113° |
| 2026-05-06 11:09 | 41.56791 | -76.74381 | 40805 ft | 582 kts | 113° |
| 2026-05-06 11:10 | 41.54006 | -76.64240 | 40805 ft | 582 kts | 113° |
| 2026-05-06 11:10 | 41.51211 | -76.54096 | 40804 ft | 582 kts | 113° |
| 2026-05-06 11:11 | 41.48410 | -76.43981 | 40805 ft | 581 kts | 113° |
| 2026-05-06 11:11 | 41.45604 | -76.33884 | 40809 ft | 580 kts | 113° |
| 2026-05-06 11:12 | 41.42795 | -76.23814 | 40810 ft | 580 kts | 114° |
| 2026-05-06 11:12 | 41.39977 | -76.13751 | 40805 ft | 579 kts | 114° |
| 2026-05-06 11:13 | 41.37155 | -76.03714 | 40813 ft | 578 kts | 114° |
| 2026-05-06 11:13 | 41.34342 | -75.93745 | 40813 ft | 578 kts | 114° |
| 2026-05-06 11:14 | 41.31506 | -75.83733 | 40818 ft | 578 kts | 114° |
| 2026-05-06 11:14 | 41.28656 | -75.73713 | 40842 ft | 579 kts | 113° |
| 2026-05-06 11:15 | 41.25716 | -75.63797 | 40843 ft | 568 kts | 117° |
| 2026-05-06 11:15 | 41.24104 | -75.59064 | 40732 ft | 558 kts | 118° |
| 2026-05-06 11:15 | 41.22501 | -75.54397 | 40318 ft | 553 kts | 118° |
| 2026-05-06 11:15 | 41.20913 | -75.49744 | 39582 ft | 555 kts | 118° |
| 2026-05-06 11:16 | 41.19312 | -75.45032 | 38562 ft | 565 kts | 118° |
| 2026-05-06 11:16 | 41.17686 | -75.40233 | 37246 ft | 576 kts | 117° |
| 2026-05-06 11:16 | 41.16040 | -75.35364 | 36225 ft | 579 kts | 117° |
| 2026-05-06 11:16 | 41.14399 | -75.30501 | 35204 ft | 572 kts | 117° |
| 2026-05-06 11:17 | 41.12790 | -75.25730 | 34087 ft | 562 kts | 117° |
| 2026-05-06 11:17 | 41.11207 | -75.21038 | 32848 ft | 552 kts | 118° |
| 2026-05-06 11:17 | 41.09651 | -75.16439 | 31649 ft | 542 kts | 118° |
| 2026-05-06 11:17 | 41.08119 | -75.11917 | 30462 ft | 532 kts | 119° |
| 2026-05-06 11:18 | 41.06617 | -75.07488 | 29259 ft | 521 kts | 119° |
| 2026-05-06 11:18 | 41.05143 | -75.03153 | 27968 ft | 511 kts | 118° |
| 2026-05-06 11:18 | 41.03712 | -74.98958 | 26760 ft | 500 kts | 118° |
| 2026-05-06 11:18 | 41.02295 | -74.94809 | 25619 ft | 490 kts | 118° |
| 2026-05-06 11:19 | 41.00905 | -74.90745 | 24523 ft | 479 kts | 118° |
| 2026-05-06 11:19 | 40.99679 | -74.86681 | 23432 ft | 473 kts | 109° |
| 2026-05-06 11:19 | 40.99021 | -74.82446 | 22209 ft | 466 kts | 102° |
| 2026-05-06 11:19 | 40.98538 | -74.78245 | 21017 ft | 456 kts | 101° |
| 2026-05-06 11:20 | 40.98078 | -74.74137 | 19865 ft | 447 kts | 102° |
| 2026-05-06 11:20 | 40.97621 | -74.70114 | 18771 ft | 438 kts | 102° |
| 2026-05-06 11:20 | 40.97166 | -74.66170 | 17624 ft | 429 kts | 102° |
| 2026-05-06 11:20 | 40.96716 | -74.62312 | 16429 ft | 420 kts | 103° |
| 2026-05-06 11:21 | 40.96273 | -74.58535 | 15267 ft | 411 kts | 103° |
| 2026-05-06 11:21 | 40.95836 | -74.54827 | 14160 ft | 403 kts | 104° |
| 2026-05-06 11:21 | 40.95405 | -74.51195 | 12992 ft | 395 kts | 104° |
| 2026-05-06 11:21 | 40.94982 | -74.47645 | 11806 ft | 387 kts | 104° |
| 2026-05-06 11:22 | 40.94567 | -74.44165 | 10656 ft | 379 kts | 104° |
| 2026-05-06 11:22 | 40.94159 | -74.40759 | 9532 ft | 371 kts | 104° |
| 2026-05-06 11:22 | 40.93764 | -74.37456 | 8629 ft | 355 kts | 104° |
| 2026-05-06 11:22 | 40.93393 | -74.34342 | 8119 ft | 330 kts | 104° |
| 2026-05-06 11:23 | 40.93026 | -74.31329 | 7959 ft | 343 kts | 104° |
| 2026-05-06 11:23 | 40.92628 | -74.28145 | 7929 ft | 355 kts | 104° |
| 2026-05-06 11:23 | 40.92233 | -74.24909 | 7940 ft | 357 kts | 104° |
| 2026-05-06 11:23 | 40.91841 | -74.21674 | 7943 ft | 357 kts | 104° |
| 2026-05-06 11:24 | 40.91447 | -74.18429 | 7942 ft | 357 kts | 104° |
| 2026-05-06 11:24 | 40.91053 | -74.15193 | 7941 ft | 356 kts | 104° |
| 2026-05-06 11:24 | 40.90509 | -74.12023 | 7942 ft | 350 kts | 117° |
| 2026-05-06 11:24 | 40.89368 | -74.09242 | 7942 ft | 342 kts | 128° |
| 2026-05-06 11:25 | 40.88070 | -74.06614 | 7795 ft | 337 kts | 129° |
| 2026-05-06 11:25 | 40.86785 | -74.04033 | 7388 ft | 338 kts | 129° |
| 2026-05-06 11:25 | 40.85491 | -74.01426 | 6973 ft | 340 kts | 128° |
| 2026-05-06 11:25 | 40.84198 | -73.98802 | 6547 ft | 340 kts | 129° |
| 2026-05-06 11:26 | 40.82918 | -73.96197 | 6137 ft | 337 kts | 129° |
| 2026-05-06 11:26 | 40.81651 | -73.93612 | 5705 ft | 334 kts | 129° |
| 2026-05-06 11:26 | 40.80389 | -73.91038 | 5286 ft | 333 kts | 129° |
| 2026-05-06 11:26 | 40.79133 | -73.88479 | 4901 ft | 331 kts | 129° |
| 2026-05-06 11:27 | 40.77889 | -73.85943 | 4771 ft | 323 kts | 129° |
| 2026-05-06 11:27 | 40.76716 | -73.83551 | 4770 ft | 299 kts | 130° |
| 2026-05-06 11:27 | 40.75611 | -73.81320 | 4773 ft | 286 kts | 130° |
| 2026-05-06 11:27 | 40.74515 | -73.79135 | 4763 ft | 286 kts | 130° |
| 2026-05-06 11:28 | 40.73416 | -73.76945 | 4762 ft | 287 kts | 130° |
| 2026-05-06 11:28 | 40.72318 | -73.74752 | 4789 ft | 287 kts | 130° |
| 2026-05-06 11:28 | 40.71223 | -73.72560 | 4788 ft | 287 kts | 130° |
| 2026-05-06 11:28 | 40.70140 | -73.70391 | 4789 ft | 287 kts | 130° |
| 2026-05-06 11:29 | 40.69042 | -73.68193 | 4687 ft | 287 kts | 130° |
| 2026-05-06 11:29 | 40.68134 | -73.65825 | 4178 ft | 297 kts | 112° |
| 2026-05-06 11:29 | 40.67988 | -73.63080 | 3659 ft | 308 kts | 87° |
| 2026-05-06 11:29 | 40.68713 | -73.60407 | 3166 ft | 314 kts | 59° |
| 2026-05-06 11:30 | 40.70165 | -73.58261 | 2924 ft | 315 kts | 40° |
| 2026-05-06 11:30 | 40.71907 | -73.56515 | 2896 ft | 315 kts | 30° |
| 2026-05-06 11:30 | 40.73784 | -73.55024 | 2892 ft | 314 kts | 27° |
| 2026-05-06 11:30 | 40.75672 | -73.53582 | 2896 ft | 314 kts | 27° |
| 2026-05-06 11:31 | 40.77570 | -73.52155 | 2897 ft | 313 kts | 26° |
| 2026-05-06 11:31 | 40.79593 | -73.51183 | 2891 ft | 307 kts | 5° |
| 2026-05-06 11:31 | 40.81657 | -73.51261 | 2875 ft | 290 kts | 337° |
| 2026-05-06 11:31 | 40.83339 | -73.52481 | 2869 ft | 269 kts | 308° |
| 2026-05-06 11:32 | 40.84320 | -73.54458 | 2861 ft | 250 kts | 280° |
| 2026-05-06 11:32 | 40.84487 | -73.56607 | 2859 ft | 221 kts | 253° |
| 2026-05-06 11:32 | 40.83808 | -73.58249 | 2885 ft | 195 kts | 229° |
| 2026-05-06 11:32 | 40.82970 | -73.59548 | 2877 ft | 177 kts | 230° |
| 2026-05-06 11:33 | 40.82244 | -73.60808 | 2877 ft | 170 kts | 234° |
| 2026-05-06 11:33 | 40.81594 | -73.62102 | 2872 ft | 168 kts | 236° |
| 2026-05-06 11:33 | 40.80995 | -73.63434 | 2847 ft | 169 kts | 238° |
| 2026-05-06 11:33 | 40.80414 | -73.64790 | 2866 ft | 171 kts | 237° |
| 2026-05-06 11:34 | 40.79650 | -73.65980 | 2877 ft | 172 kts | 220° |
| 2026-05-06 11:34 | 40.78631 | -73.66789 | 2883 ft | 171 kts | 210° |
| 2026-05-06 11:34 | 40.77610 | -73.67435 | 2877 ft | 155 kts | 211° |
| 2026-05-06 11:34 | 40.76684 | -73.68071 | 2858 ft | 147 kts | 212° |
| 2026-05-06 11:35 | 40.75788 | -73.68716 | 2627 ft | 146 kts | 213° |
| 2026-05-06 11:35 | 40.74891 | -73.69353 | 2421 ft | 147 kts | 212° |
| 2026-05-06 11:35 | 40.73994 | -73.69984 | 2226 ft | 145 kts | 213° |
| 2026-05-06 11:35 | 40.73111 | -73.70618 | 2028 ft | 144 kts | 213° |
| 2026-05-06 11:36 | 40.72234 | -73.71241 | 1833 ft | 143 kts | 212° |
| 2026-05-06 11:36 | 40.71343 | -73.71872 | 1650 ft | 148 kts | 212° |
| 2026-05-06 11:36 | 40.70429 | -73.72524 | 1450 ft | 151 kts | 212° |
| 2026-05-06 11:36 | 40.69496 | -73.73188 | 1244 ft | 154 kts | 211° |
| 2026-05-06 11:37 | 40.68546 | -73.73862 | 1027 ft | 156 kts | 209° |
| 2026-05-06 11:37 | 40.67572 | -73.74551 | 813 ft | 163 kts | 208° |
| 2026-05-06 11:37 | 40.66557 | -73.75274 | 585 ft | 168 kts | 203° |
| 2026-05-06 11:37 | 40.65516 | -73.75994 | 381 ft | 164 kts | 206° |
| 2026-05-06 11:38 | 40.64574 | -73.76698 | 122 ft | 146 kts | 210° |
| 2026-05-06 11:38 | 40.63762 | -73.77341 | 28 ft | 126 kts | 210° |
| 2026-05-06 11:38 | 40.63116 | -73.77840 | 35 ft | 89 kts | 211° |
| 2026-05-06 11:38 | 40.62786 | -73.78096 | 31 ft | 43 kts | 211° |
| 2026-05-06 11:39 | 40.62644 | -73.78256 | 34 ft | 12 kts | 261° |
| 2026-05-06 11:39 | 40.62694 | -73.78357 | 32 ft | 13 kts | 4° |
| 2026-05-06 11:39 | 40.62747 | -73.78322 | 31 ft | 0 kts | 30° |
| 2026-05-06 11:42 | 40.62749 | -73.78321 | 31 ft | 2 kts | 30° |
| 2026-05-06 11:42 | 40.62754 | -73.78317 | 31 ft | 0 kts | 30° |
| 2026-05-06 11:42 | 40.62763 | -73.78310 | 30 ft | 5 kts | 30° |
| 2026-05-06 11:43 | 40.62867 | -73.78231 | 28 ft | 28 kts | 31° |
| 2026-05-06 11:43 | 40.63047 | -73.78089 | 30 ft | 31 kts | 32° |
| 2026-05-06 11:43 | 40.63243 | -73.78002 | 33 ft | 27 kts | 14° |
| 2026-05-06 11:44 | 40.63440 | -73.78109 | 31 ft | 25 kts | 299° |
| 2026-05-06 11:44 | 40.63534 | -73.78322 | 32 ft | 28 kts | 300° |
| 2026-05-06 11:44 | 40.63636 | -73.78544 | 35 ft | 30 kts | 301° |
| 2026-05-06 11:44 | 40.63779 | -73.78860 | 33 ft | 53 kts | 300° |
| 2026-05-06 11:45 | 40.63972 | -73.79285 | 27 ft | 54 kts | 301° |
| 2026-05-06 11:45 | 40.64164 | -73.79701 | 32 ft | 52 kts | 303° |
| 2026-05-06 11:45 | 40.64384 | -73.80072 | 28 ft | 52 kts | 301° |
| 2026-05-06 11:45 | 40.64573 | -73.80489 | 31 ft | 53 kts | 300° |
| 2026-05-06 11:46 | 40.64761 | -73.80907 | 32 ft | 53 kts | 301° |
| 2026-05-06 11:46 | 40.64896 | -73.81195 | 30 ft | 13 kts | 315° |
| 2026-05-06 11:46 | 40.64948 | -73.81186 | 29 ft | 15 kts | 45° |
| 2026-05-06 11:46 | 40.64998 | -73.81139 | 27 ft | 3 kts | 337° |
| 2026-05-06 11:47 | 40.65044 | -73.81170 | 29 ft | 0 kts | 333° |
| 2026-05-06 11:47 | 40.65047 | -73.81172 | 29 ft | 2 kts | 333° |
| 2026-05-06 11:47 | 40.65052 | -73.81176 | 31 ft | 0 kts | 333° |
| 2026-05-06 11:47 | 40.65054 | -73.81177 | 31 ft | 0 kts | 333° |